sensor_id;sensor_type;location;lat;lon;timestamp;temperature;humidity
32660;DHT22;19064;47.912;12.308;2023-04-03T00:00:38;2.80;99.90
32660;DHT22;19064;47.912;12.308;2023-04-03T00:03:04;2.90;99.90
32660;DHT22;19064;47.912;12.308;2023-04-03T00:05:31;2.90;99.90
32660;DHT22;19064;47.912;12.308;2023-04-03T00:07:58;2.90;99.90
32660;DHT22;19064;47.912;12.308;2023-04-03T00:10:27;3.00;99.90
32660;DHT22;19064;47.912;12.308;2023-04-03T00:12:54;2.80;99.90
32660;DHT22;19064;47.912;12.308;2023-04-03T00:15:21;2.80;99.90
32660;DHT22;19064;47.912;12.308;2023-04-03T00:17:47;2.70;99.90
32660;DHT22;19064;47.912;12.308;2023-04-03T00:20:14;2.70;99.90
32660;DHT22;19064;47.912;12.308;2023-04-03T00:22:41;2.60;99.90
32660;DHT22;19064;47.912;12.308;2023-04-03T00:25:09;2.60;99.90
32660;DHT22;19064;47.912;12.308;2023-04-03T00:27:38;2.70;99.90
32660;DHT22;19064;47.912;12.308;2023-04-03T00:30:06;2.70;99.90
32660;DHT22;19064;47.912;12.308;2023-04-03T00:32:33;2.60;99.90
32660;DHT22;19064;47.912;12.308;2023-04-03T00:35:00;2.60;99.90
32660;DHT22;19064;47.912;12.308;2023-04-03T00:37:27;2.70;99.90
32660;DHT22;19064;47.912;12.308;2023-04-03T00:39:54;2.60;99.90
32660;DHT22;19064;47.912;12.308;2023-04-03T00:42:20;2.70;99.90
32660;DHT22;19064;47.912;12.308;2023-04-03T00:45:25;2.70;99.90
32660;DHT22;19064;47.912;12.308;2023-04-03T00:47:51;2.80;99.90
32660;DHT22;19064;47.912;12.308;2023-04-03T00:50:18;2.80;99.90
32660;DHT22;19064;47.912;12.308;2023-04-03T00:52:45;2.80;99.90
32660;DHT22;19064;47.912;12.308;2023-04-03T00:55:15;2.80;99.90
32660;DHT22;19064;47.912;12.308;2023-04-03T00:57:42;2.70;99.90
32660;DHT22;19064;47.912;12.308;2023-04-03T01:00:11;2.70;99.90
32660;DHT22;19064;47.912;12.308;2023-04-03T01:02:41;2.70;99.90
32660;DHT22;19064;47.912;12.308;2023-04-03T01:05:08;2.70;99.90
32660;DHT22;19064;47.912;12.308;2023-04-03T01:07:35;2.60;99.90
32660;DHT22;19064;47.912;12.308;2023-04-03T01:10:05;2.60;99.90
32660;DHT22;19064;47.912;12.308;2023-04-03T01:12:33;2.70;99.90
32660;DHT22;19064;47.912;12.308;2023-04-03T01:15:02;2.70;99.90
32660;DHT22;19064;47.912;12.308;2023-04-03T01:17:32;2.70;99.90
32660;DHT22;19064;47.912;12.308;2023-04-03T01:23:15;2.80;99.90
32660;DHT22;19064;47.912;12.308;2023-04-03T01:25:48;2.90;99.90
32660;DHT22;19064;47.912;12.308;2023-04-03T01:28:17;2.80;99.90
32660;DHT22;19064;47.912;12.308;2023-04-03T01:30:48;2.80;99.90
32660;DHT22;19064;47.912;12.308;2023-04-03T01:33:18;2.80;99.90
32660;DHT22;19064;47.912;12.308;2023-04-03T01:35:45;2.70;99.90
32660;DHT22;19064;47.912;12.308;2023-04-03T01:38:12;2.70;99.90
32660;DHT22;19064;47.912;12.308;2023-04-03T01:40:39;2.60;99.90
32660;DHT22;19064;47.912;12.308;2023-04-03T01:43:06;2.70;99.90
32660;DHT22;19064;47.912;12.308;2023-04-03T01:45:33;2.70;99.90
32660;DHT22;19064;47.912;12.308;2023-04-03T01:47:59;2.70;99.90
32660;DHT22;19064;47.912;12.308;2023-04-03T01:50:27;2.70;99.90
32660;DHT22;19064;47.912;12.308;2023-04-03T01:52:54;2.80;99.90
32660;DHT22;19064;47.912;12.308;2023-04-03T01:55:21;2.80;99.90
32660;DHT22;19064;47.912;12.308;2023-04-03T01:57:48;2.70;99.90
32660;DHT22;19064;47.912;12.308;2023-04-03T02:00:15;2.80;99.90
32660;DHT22;19064;47.912;12.308;2023-04-03T02:02:42;2.70;99.90
32660;DHT22;19064;47.912;12.308;2023-04-03T02:05:09;2.70;99.90
32660;DHT22;19064;47.912;12.308;2023-04-03T02:07:37;2.80;99.90
32660;DHT22;19064;47.912;12.308;2023-04-03T02:10:04;2.90;99.90
32660;DHT22;19064;47.912;12.308;2023-04-03T02:12:31;2.90;99.90
32660;DHT22;19064;47.912;12.308;2023-04-03T02:14:58;2.90;99.90
32660;DHT22;19064;47.912;12.308;2023-04-03T02:17:25;2.90;99.90
32660;DHT22;19064;47.912;12.308;2023-04-03T02:19:51;2.90;99.90
32660;DHT22;19064;47.912;12.308;2023-04-03T02:22:18;2.90;99.90
32660;DHT22;19064;47.912;12.308;2023-04-03T02:24:47;2.90;99.90
32660;DHT22;19064;47.912;12.308;2023-04-03T02:27:13;2.90;99.90
32660;DHT22;19064;47.912;12.308;2023-04-03T02:29:40;2.90;99.90
32660;DHT22;19064;47.912;12.308;2023-04-03T02:32:07;2.90;99.90
32660;DHT22;19064;47.912;12.308;2023-04-03T02:34:34;2.90;99.90
32660;DHT22;19064;47.912;12.308;2023-04-03T02:37:00;3.00;99.90
32660;DHT22;19064;47.912;12.308;2023-04-03T02:39:27;2.90;99.90
32660;DHT22;19064;47.912;12.308;2023-04-03T02:41:55;2.90;99.90
32660;DHT22;19064;47.912;12.308;2023-04-03T02:44:22;2.80;99.90
32660;DHT22;19064;47.912;12.308;2023-04-03T02:46:50;2.90;99.90
32660;DHT22;19064;47.912;12.308;2023-04-03T02:49:16;2.70;99.90
32660;DHT22;19064;47.912;12.308;2023-04-03T02:51:43;2.80;99.90
32660;DHT22;19064;47.912;12.308;2023-04-03T02:54:10;2.80;99.90
32660;DHT22;19064;47.912;12.308;2023-04-03T02:56:37;2.90;99.90
32660;DHT22;19064;47.912;12.308;2023-04-03T02:59:05;2.90;99.90
32660;DHT22;19064;47.912;12.308;2023-04-03T03:01:31;2.90;99.90
32660;DHT22;19064;47.912;12.308;2023-04-03T03:03:58;2.80;99.90
32660;DHT22;19064;47.912;12.308;2023-04-03T03:06:25;2.70;99.90
32660;DHT22;19064;47.912;12.308;2023-04-03T03:08:52;2.80;99.90
32660;DHT22;19064;47.912;12.308;2023-04-03T03:11:19;2.80;99.90
32660;DHT22;19064;47.912;12.308;2023-04-03T03:13:46;2.70;99.90
32660;DHT22;19064;47.912;12.308;2023-04-03T03:16:14;2.60;99.90
32660;DHT22;19064;47.912;12.308;2023-04-03T03:18:41;2.50;99.90
32660;DHT22;19064;47.912;12.308;2023-04-03T03:21:09;2.60;99.90
32660;DHT22;19064;47.912;12.308;2023-04-03T03:23:36;2.60;99.90
32660;DHT22;19064;47.912;12.308;2023-04-03T03:26:05;2.60;99.90
32660;DHT22;19064;47.912;12.308;2023-04-03T03:28:32;2.60;99.90
32660;DHT22;19064;47.912;12.308;2023-04-03T03:30:59;2.60;99.90
32660;DHT22;19064;47.912;12.308;2023-04-03T03:33:27;2.50;99.90
32660;DHT22;19064;47.912;12.308;2023-04-03T03:35:54;2.40;99.90
32660;DHT22;19064;47.912;12.308;2023-04-03T03:38:22;2.40;99.90
32660;DHT22;19064;47.912;12.308;2023-04-03T03:40:49;2.40;99.90
32660;DHT22;19064;47.912;12.308;2023-04-03T03:43:17;2.30;99.90
32660;DHT22;19064;47.912;12.308;2023-04-03T03:45:44;2.30;99.90
32660;DHT22;19064;47.912;12.308;2023-04-03T03:48:11;2.30;99.90
32660;DHT22;19064;47.912;12.308;2023-04-03T03:50:39;2.30;99.90
32660;DHT22;19064;47.912;12.308;2023-04-03T03:53:06;2.30;99.90
32660;DHT22;19064;47.912;12.308;2023-04-03T03:55:33;2.40;99.90
32660;DHT22;19064;47.912;12.308;2023-04-03T03:58:00;2.40;99.90
32660;DHT22;19064;47.912;12.308;2023-04-03T04:00:27;2.40;99.90
32660;DHT22;19064;47.912;12.308;2023-04-03T04:02:54;2.50;99.90
32660;DHT22;19064;47.912;12.308;2023-04-03T04:05:21;2.60;99.90
32660;DHT22;19064;47.912;12.308;2023-04-03T04:07:49;2.60;99.90
32660;DHT22;19064;47.912;12.308;2023-04-03T04:10:16;2.60;99.90
32660;DHT22;19064;47.912;12.308;2023-04-03T04:12:43;2.70;99.90
32660;DHT22;19064;47.912;12.308;2023-04-03T04:15:10;2.70;99.90
32660;DHT22;19064;47.912;12.308;2023-04-03T04:17:37;2.70;99.90
32660;DHT22;19064;47.912;12.308;2023-04-03T04:20:04;2.70;99.90
32660;DHT22;19064;47.912;12.308;2023-04-03T04:22:31;2.70;99.90
32660;DHT22;19064;47.912;12.308;2023-04-03T04:24:59;2.70;99.90
32660;DHT22;19064;47.912;12.308;2023-04-03T04:27:26;2.70;99.90
32660;DHT22;19064;47.912;12.308;2023-04-03T04:29:52;2.70;99.90
32660;DHT22;19064;47.912;12.308;2023-04-03T04:32:19;2.80;99.90
32660;DHT22;19064;47.912;12.308;2023-04-03T04:34:46;2.70;99.90
32660;DHT22;19064;47.912;12.308;2023-04-03T04:37:12;2.70;99.90
32660;DHT22;19064;47.912;12.308;2023-04-03T04:39:39;2.80;99.90
32660;DHT22;19064;47.912;12.308;2023-04-03T04:42:07;2.70;99.90
32660;DHT22;19064;47.912;12.308;2023-04-03T04:44:38;2.80;99.90
32660;DHT22;19064;47.912;12.308;2023-04-03T04:47:04;2.70;99.90
32660;DHT22;19064;47.912;12.308;2023-04-03T04:49:31;2.70;99.90
32660;DHT22;19064;47.912;12.308;2023-04-03T04:51:58;2.70;99.90
32660;DHT22;19064;47.912;12.308;2023-04-03T04:54:24;2.70;99.90
32660;DHT22;19064;47.912;12.308;2023-04-03T04:56:51;2.70;99.90
32660;DHT22;19064;47.912;12.308;2023-04-03T04:59:20;2.60;99.90
32660;DHT22;19064;47.912;12.308;2023-04-03T05:01:46;2.70;99.90
32660;DHT22;19064;47.912;12.308;2023-04-03T05:04:13;2.70;99.90
32660;DHT22;19064;47.912;12.308;2023-04-03T05:06:40;2.70;99.90
32660;DHT22;19064;47.912;12.308;2023-04-03T05:09:07;2.70;99.90
32660;DHT22;19064;47.912;12.308;2023-04-03T05:11:35;2.70;99.90
32660;DHT22;19064;47.912;12.308;2023-04-03T05:14:02;2.60;99.90
32660;DHT22;19064;47.912;12.308;2023-04-03T05:16:32;2.60;99.90
32660;DHT22;19064;47.912;12.308;2023-04-03T05:18:59;2.80;99.90
32660;DHT22;19064;47.912;12.308;2023-04-03T05:21:25;2.70;99.90
32660;DHT22;19064;47.912;12.308;2023-04-03T05:23:57;2.70;99.90
32660;DHT22;19064;47.912;12.308;2023-04-03T05:26:24;2.70;99.90
32660;DHT22;19064;47.912;12.308;2023-04-03T05:28:51;2.60;99.90
32660;DHT22;19064;47.912;12.308;2023-04-03T05:31:18;2.60;99.90
32660;DHT22;19064;47.912;12.308;2023-04-03T05:33:47;2.60;99.90
32660;DHT22;19064;47.912;12.308;2023-04-03T05:36:13;2.60;99.90
32660;DHT22;19064;47.912;12.308;2023-04-03T05:38:40;2.60;99.90
32660;DHT22;19064;47.912;12.308;2023-04-03T05:41:07;2.60;99.90
32660;DHT22;19064;47.912;12.308;2023-04-03T05:43:34;2.60;99.90
32660;DHT22;19064;47.912;12.308;2023-04-03T05:46:03;2.60;99.90
32660;DHT22;19064;47.912;12.308;2023-04-03T05:48:30;2.60;99.90
32660;DHT22;19064;47.912;12.308;2023-04-03T05:50:58;2.60;99.90
32660;DHT22;19064;47.912;12.308;2023-04-03T05:53:28;2.70;99.90
32660;DHT22;19064;47.912;12.308;2023-04-03T05:55:56;2.70;99.90
32660;DHT22;19064;47.912;12.308;2023-04-03T05:58:22;2.70;99.90
32660;DHT22;19064;47.912;12.308;2023-04-03T06:00:49;2.70;99.90
32660;DHT22;19064;47.912;12.308;2023-04-03T06:03:16;2.70;99.90
32660;DHT22;19064;47.912;12.308;2023-04-03T06:05:43;2.80;99.90
32660;DHT22;19064;47.912;12.308;2023-04-03T06:08:11;2.90;99.90
32660;DHT22;19064;47.912;12.308;2023-04-03T06:10:38;2.90;99.90
32660;DHT22;19064;47.912;12.308;2023-04-03T06:13:08;2.90;99.90
32660;DHT22;19064;47.912;12.308;2023-04-03T06:15:35;2.80;99.90
32660;DHT22;19064;47.912;12.308;2023-04-03T06:18:02;2.90;99.90
32660;DHT22;19064;47.912;12.308;2023-04-03T06:20:29;3.00;99.90
32660;DHT22;19064;47.912;12.308;2023-04-03T06:22:56;3.00;99.90
32660;DHT22;19064;47.912;12.308;2023-04-03T06:25:25;2.90;99.90
32660;DHT22;19064;47.912;12.308;2023-04-03T06:27:52;3.00;99.90
32660;DHT22;19064;47.912;12.308;2023-04-03T06:30:20;3.00;99.90
32660;DHT22;19064;47.912;12.308;2023-04-03T06:32:50;3.20;99.90
32660;DHT22;19064;47.912;12.308;2023-04-03T06:35:18;3.20;99.90
32660;DHT22;19064;47.912;12.308;2023-04-03T06:37:47;3.00;99.90
32660;DHT22;19064;47.912;12.308;2023-04-03T06:40:19;3.00;99.90
32660;DHT22;19064;47.912;12.308;2023-04-03T06:42:50;3.00;99.90
32660;DHT22;19064;47.912;12.308;2023-04-03T06:45:17;3.00;99.90
32660;DHT22;19064;47.912;12.308;2023-04-03T06:47:46;3.00;99.90
32660;DHT22;19064;47.912;12.308;2023-04-03T06:50:13;2.90;99.90
32660;DHT22;19064;47.912;12.308;2023-04-03T06:52:41;3.00;99.90
32660;DHT22;19064;47.912;12.308;2023-04-03T06:55:11;3.00;99.90
32660;DHT22;19064;47.912;12.308;2023-04-03T06:57:39;3.00;99.90
32660;DHT22;19064;47.912;12.308;2023-04-03T07:00:11;3.00;99.90
32660;DHT22;19064;47.912;12.308;2023-04-03T07:02:39;3.10;99.90
32660;DHT22;19064;47.912;12.308;2023-04-03T07:05:08;3.00;99.90
32660;DHT22;19064;47.912;12.308;2023-04-03T07:07:39;3.00;99.90
32660;DHT22;19064;47.912;12.308;2023-04-03T07:10:08;3.00;99.90
32660;DHT22;19064;47.912;12.308;2023-04-03T07:12:35;3.10;99.90
32660;DHT22;19064;47.912;12.308;2023-04-03T07:15:03;3.10;99.90
32660;DHT22;19064;47.912;12.308;2023-04-03T07:17:31;3.10;99.90
32660;DHT22;19064;47.912;12.308;2023-04-03T07:19:58;3.10;99.90
32660;DHT22;19064;47.912;12.308;2023-04-03T07:22:25;3.20;99.90
32660;DHT22;19064;47.912;12.308;2023-04-03T07:24:52;3.30;99.90
32660;DHT22;19064;47.912;12.308;2023-04-03T07:27:19;3.20;99.90
32660;DHT22;19064;47.912;12.308;2023-04-03T07:29:45;3.10;99.90
32660;DHT22;19064;47.912;12.308;2023-04-03T07:32:13;3.10;99.90
32660;DHT22;19064;47.912;12.308;2023-04-03T07:34:42;3.20;99.90
32660;DHT22;19064;47.912;12.308;2023-04-03T07:37:09;3.30;99.90
32660;DHT22;19064;47.912;12.308;2023-04-03T07:39:36;3.30;99.90
32660;DHT22;19064;47.912;12.308;2023-04-03T07:42:03;3.30;99.90
32660;DHT22;19064;47.912;12.308;2023-04-03T07:44:30;3.40;99.90
32660;DHT22;19064;47.912;12.308;2023-04-03T07:46:57;3.40;99.90
32660;DHT22;19064;47.912;12.308;2023-04-03T07:49:25;3.40;99.90
32660;DHT22;19064;47.912;12.308;2023-04-03T07:51:55;3.30;99.90
32660;DHT22;19064;47.912;12.308;2023-04-03T07:54:24;3.30;99.90
32660;DHT22;19064;47.912;12.308;2023-04-03T07:56:51;3.30;99.90
32660;DHT22;19064;47.912;12.308;2023-04-03T07:59:18;3.30;99.90
32660;DHT22;19064;47.912;12.308;2023-04-03T08:01:45;3.40;99.90
32660;DHT22;19064;47.912;12.308;2023-04-03T08:04:12;3.40;99.90
32660;DHT22;19064;47.912;12.308;2023-04-03T08:06:41;3.50;99.90
32660;DHT22;19064;47.912;12.308;2023-04-03T08:09:09;3.50;99.90
32660;DHT22;19064;47.912;12.308;2023-04-03T08:11:38;3.60;99.90
32660;DHT22;19064;47.912;12.308;2023-04-03T08:14:05;3.60;99.90
32660;DHT22;19064;47.912;12.308;2023-04-03T08:16:32;3.60;99.90
32660;DHT22;19064;47.912;12.308;2023-04-03T08:18:59;3.60;99.90
32660;DHT22;19064;47.912;12.308;2023-04-03T08:21:26;3.60;99.90
32660;DHT22;19064;47.912;12.308;2023-04-03T08:23:53;3.50;99.90
32660;DHT22;19064;47.912;12.308;2023-04-03T08:26:21;3.50;99.90
32660;DHT22;19064;47.912;12.308;2023-04-03T08:28:48;3.60;99.90
32660;DHT22;19064;47.912;12.308;2023-04-03T08:31:17;3.60;99.90
32660;DHT22;19064;47.912;12.308;2023-04-03T08:33:46;3.60;99.90
32660;DHT22;19064;47.912;12.308;2023-04-03T08:36:18;3.70;99.90
32660;DHT22;19064;47.912;12.308;2023-04-03T08:38:46;3.70;99.90
32660;DHT22;19064;47.912;12.308;2023-04-03T08:41:16;3.70;99.90
32660;DHT22;19064;47.912;12.308;2023-04-03T08:43:56;3.70;99.90
32660;DHT22;19064;47.912;12.308;2023-04-03T08:46:36;3.80;99.90
32660;DHT22;19064;47.912;12.308;2023-04-03T08:49:10;3.80;99.90
32660;DHT22;19064;47.912;12.308;2023-04-03T08:51:46;3.90;99.90
32660;DHT22;19064;47.912;12.308;2023-04-03T08:54:25;3.90;99.90
32660;DHT22;19064;47.912;12.308;2023-04-03T08:56:55;4.00;99.90
32660;DHT22;19064;47.912;12.308;2023-04-03T08:59:28;4.00;99.90
32660;DHT22;19064;47.912;12.308;2023-04-03T09:01:56;4.00;99.90
32660;DHT22;19064;47.912;12.308;2023-04-03T09:04:26;4.10;99.90
32660;DHT22;19064;47.912;12.308;2023-04-03T09:06:55;4.10;99.90
32660;DHT22;19064;47.912;12.308;2023-04-03T09:09:30;4.10;99.90
32660;DHT22;19064;47.912;12.308;2023-04-03T09:12:04;4.20;99.90
32660;DHT22;19064;47.912;12.308;2023-04-03T09:14:39;4.20;99.90
32660;DHT22;19064;47.912;12.308;2023-04-03T09:17:14;4.30;99.90
32660;DHT22;19064;47.912;12.308;2023-04-03T09:19:48;4.40;99.90
32660;DHT22;19064;47.912;12.308;2023-04-03T09:22:21;4.60;99.90
32660;DHT22;19064;47.912;12.308;2023-04-03T09:24:55;4.70;99.90
32660;DHT22;19064;47.912;12.308;2023-04-03T09:27:22;4.60;99.90
32660;DHT22;19064;47.912;12.308;2023-04-03T09:29:53;4.60;99.90
32660;DHT22;19064;47.912;12.308;2023-04-03T09:32:26;4.50;99.90
32660;DHT22;19064;47.912;12.308;2023-04-03T09:34:55;4.40;99.90
32660;DHT22;19064;47.912;12.308;2023-04-03T09:37:37;4.30;99.90
32660;DHT22;19064;47.912;12.308;2023-04-03T09:40:06;4.30;99.90
32660;DHT22;19064;47.912;12.308;2023-04-03T09:42:33;4.40;99.90
32660;DHT22;19064;47.912;12.308;2023-04-03T09:45:22;4.40;99.90
32660;DHT22;19064;47.912;12.308;2023-04-03T09:48:05;4.30;99.90
32660;DHT22;19064;47.912;12.308;2023-04-03T09:50:33;4.20;99.90
32660;DHT22;19064;47.912;12.308;2023-04-03T09:53:05;4.30;99.90
32660;DHT22;19064;47.912;12.308;2023-04-03T09:55:33;4.30;99.90
32660;DHT22;19064;47.912;12.308;2023-04-03T09:58:26;4.40;99.90
32660;DHT22;19064;47.912;12.308;2023-04-03T10:00:56;4.30;99.90
32660;DHT22;19064;47.912;12.308;2023-04-03T10:03:27;4.30;99.90
32660;DHT22;19064;47.912;12.308;2023-04-03T10:05:54;4.40;99.90
32660;DHT22;19064;47.912;12.308;2023-04-03T10:08:26;4.40;99.90
32660;DHT22;19064;47.912;12.308;2023-04-03T10:11:12;4.50;99.90
32660;DHT22;19064;47.912;12.308;2023-04-03T10:13:56;4.50;99.90
32660;DHT22;19064;47.912;12.308;2023-04-03T10:16:29;4.40;99.90
32660;DHT22;19064;47.912;12.308;2023-04-03T10:19:22;4.50;99.90
32660;DHT22;19064;47.912;12.308;2023-04-03T10:21:55;4.50;99.90
32660;DHT22;19064;47.912;12.308;2023-04-03T10:24:29;4.60;99.90
32660;DHT22;19064;47.912;12.308;2023-04-03T10:27:01;4.70;99.90
32660;DHT22;19064;47.912;12.308;2023-04-03T10:29:38;4.70;99.90
32660;DHT22;19064;47.912;12.308;2023-04-03T10:32:20;4.80;99.90
32660;DHT22;19064;47.912;12.308;2023-04-03T10:34:55;4.80;99.90
32660;DHT22;19064;47.912;12.308;2023-04-03T10:37:25;4.80;99.90
32660;DHT22;19064;47.912;12.308;2023-04-03T10:39:57;4.80;99.90
32660;DHT22;19064;47.912;12.308;2023-04-03T10:42:31;4.80;99.90
32660;DHT22;19064;47.912;12.308;2023-04-03T10:45:15;4.80;99.90
32660;DHT22;19064;47.912;12.308;2023-04-03T10:47:55;4.80;99.90
32660;DHT22;19064;47.912;12.308;2023-04-03T10:50:36;4.80;99.90
32660;DHT22;19064;47.912;12.308;2023-04-03T10:53:10;4.80;99.90
32660;DHT22;19064;47.912;12.308;2023-04-03T10:55:44;4.70;99.90
32660;DHT22;19064;47.912;12.308;2023-04-03T10:58:19;4.80;99.90
32660;DHT22;19064;47.912;12.308;2023-04-03T11:00:50;4.80;99.90
32660;DHT22;19064;47.912;12.308;2023-04-03T11:03:29;4.60;99.90
32660;DHT22;19064;47.912;12.308;2023-04-03T11:05:59;4.30;99.90
32660;DHT22;19064;47.912;12.308;2023-04-03T11:08:30;4.20;99.90
32660;DHT22;19064;47.912;12.308;2023-04-03T11:11:03;4.00;99.90
32660;DHT22;19064;47.912;12.308;2023-04-03T11:13:34;3.80;99.90
32660;DHT22;19064;47.912;12.308;2023-04-03T11:16:04;3.80;99.90
32660;DHT22;19064;47.912;12.308;2023-04-03T11:18:36;3.80;99.90
32660;DHT22;19064;47.912;12.308;2023-04-03T11:21:06;3.80;99.90
32660;DHT22;19064;47.912;12.308;2023-04-03T11:23:36;3.80;99.90
32660;DHT22;19064;47.912;12.308;2023-04-03T11:26:09;3.80;99.90
32660;DHT22;19064;47.912;12.308;2023-04-03T11:28:36;3.70;99.90
32660;DHT22;19064;47.912;12.308;2023-04-03T11:31:13;3.70;99.90
32660;DHT22;19064;47.912;12.308;2023-04-03T11:33:49;3.50;99.90
32660;DHT22;19064;47.912;12.308;2023-04-03T11:36:22;3.40;99.90
32660;DHT22;19064;47.912;12.308;2023-04-03T11:38:52;3.10;99.90
32660;DHT22;19064;47.912;12.308;2023-04-03T11:41:26;3.10;99.90
32660;DHT22;19064;47.912;12.308;2023-04-03T11:43:58;3.10;99.90
32660;DHT22;19064;47.912;12.308;2023-04-03T11:46:50;3.10;99.90
32660;DHT22;19064;47.912;12.308;2023-04-03T11:49:57;3.00;99.90
32660;DHT22;19064;47.912;12.308;2023-04-03T11:53:03;3.00;99.90
32660;DHT22;19064;47.912;12.308;2023-04-03T11:55:54;3.20;99.90
32660;DHT22;19064;47.912;12.308;2023-04-03T11:58:22;3.20;99.90
32660;DHT22;19064;47.912;12.308;2023-04-03T12:00:58;3.30;99.90
32660;DHT22;19064;47.912;12.308;2023-04-03T12:09:27;3.40;99.90
32660;DHT22;19064;47.912;12.308;2023-04-03T12:11:56;3.40;99.90
32660;DHT22;19064;47.912;12.308;2023-04-03T12:14:24;3.40;99.90
32660;DHT22;19064;47.912;12.308;2023-04-03T12:16:53;3.50;99.90
32660;DHT22;19064;47.912;12.308;2023-04-03T12:19:34;3.60;99.90
32660;DHT22;19064;47.912;12.308;2023-04-03T12:22:13;3.50;99.90
32660;DHT22;19064;47.912;12.308;2023-04-03T12:24:44;3.60;99.90
32660;DHT22;19064;47.912;12.308;2023-04-03T12:27:33;3.60;99.90
32660;DHT22;19064;47.912;12.308;2023-04-03T12:30:15;3.60;99.90
32660;DHT22;19064;47.912;12.308;2023-04-03T12:32:51;3.70;99.90
32660;DHT22;19064;47.912;12.308;2023-04-03T12:35:28;3.70;99.90
32660;DHT22;19064;47.912;12.308;2023-04-03T12:38:25;3.80;99.90
32660;DHT22;19064;47.912;12.308;2023-04-03T12:41:13;3.90;99.90
32660;DHT22;19064;47.912;12.308;2023-04-03T12:43:43;3.90;99.90
32660;DHT22;19064;47.912;12.308;2023-04-03T12:46:17;3.90;99.90
32660;DHT22;19064;47.912;12.308;2023-04-03T12:48:49;3.80;99.90
32660;DHT22;19064;47.912;12.308;2023-04-03T12:51:19;3.80;99.90
32660;DHT22;19064;47.912;12.308;2023-04-03T12:53:48;3.90;99.90
32660;DHT22;19064;47.912;12.308;2023-04-03T12:56:22;3.90;99.90
32660;DHT22;19064;47.912;12.308;2023-04-03T12:58:51;4.00;99.90
32660;DHT22;19064;47.912;12.308;2023-04-03T13:01:21;4.00;99.90
32660;DHT22;19064;47.912;12.308;2023-04-03T13:03:53;3.60;99.90
32660;DHT22;19064;47.912;12.308;2023-04-03T13:06:23;3.10;99.90
32660;DHT22;19064;47.912;12.308;2023-04-03T13:08:51;2.90;99.90
32660;DHT22;19064;47.912;12.308;2023-04-03T13:11:21;2.70;99.90
32660;DHT22;19064;47.912;12.308;2023-04-03T13:13:56;2.60;99.90
32660;DHT22;19064;47.912;12.308;2023-04-03T13:16:23;2.60;99.90
32660;DHT22;19064;47.912;12.308;2023-04-03T13:18:51;2.60;99.90
32660;DHT22;19064;47.912;12.308;2023-04-03T13:21:20;2.60;99.90
32660;DHT22;19064;47.912;12.308;2023-04-03T13:23:50;2.50;99.90
32660;DHT22;19064;47.912;12.308;2023-04-03T13:26:18;2.50;99.90
32660;DHT22;19064;47.912;12.308;2023-04-03T13:28:48;2.50;99.90
32660;DHT22;19064;47.912;12.308;2023-04-03T13:31:22;2.50;99.90
32660;DHT22;19064;47.912;12.308;2023-04-03T13:33:56;2.60;99.90
32660;DHT22;19064;47.912;12.308;2023-04-03T13:36:26;2.70;99.90
32660;DHT22;19064;47.912;12.308;2023-04-03T13:39:21;2.80;99.90
32660;DHT22;19064;47.912;12.308;2023-04-03T13:41:50;2.90;99.90
32660;DHT22;19064;47.912;12.308;2023-04-03T13:44:30;2.90;99.90
32660;DHT22;19064;47.912;12.308;2023-04-03T13:46:58;3.00;99.90
32660;DHT22;19064;47.912;12.308;2023-04-03T13:49:31;3.10;99.90
32660;DHT22;19064;47.912;12.308;2023-04-03T13:51:59;3.20;99.90
32660;DHT22;19064;47.912;12.308;2023-04-03T13:54:31;3.20;99.90
32660;DHT22;19064;47.912;12.308;2023-04-03T13:57:01;3.30;99.90
32660;DHT22;19064;47.912;12.308;2023-04-03T13:59:33;3.30;99.90
32660;DHT22;19064;47.912;12.308;2023-04-03T14:02:14;3.40;99.90
32660;DHT22;19064;47.912;12.308;2023-04-03T14:04:49;3.40;99.90
32660;DHT22;19064;47.912;12.308;2023-04-03T14:07:16;3.40;99.90
32660;DHT22;19064;47.912;12.308;2023-04-03T14:09:45;3.50;99.90
32660;DHT22;19064;47.912;12.308;2023-04-03T14:12:15;3.50;99.90
32660;DHT22;19064;47.912;12.308;2023-04-03T14:14:44;3.50;99.90
32660;DHT22;19064;47.912;12.308;2023-04-03T14:17:15;3.60;99.90
32660;DHT22;19064;47.912;12.308;2023-04-03T14:19:43;3.60;99.90
32660;DHT22;19064;47.912;12.308;2023-04-03T14:22:15;3.60;99.90
32660;DHT22;19064;47.912;12.308;2023-04-03T14:24:43;3.60;99.90
32660;DHT22;19064;47.912;12.308;2023-04-03T14:27:15;3.70;99.90
32660;DHT22;19064;47.912;12.308;2023-04-03T14:29:44;3.70;99.90
32660;DHT22;19064;47.912;12.308;2023-04-03T14:32:12;3.70;99.90
32660;DHT22;19064;47.912;12.308;2023-04-03T14:34:40;3.60;99.90
32660;DHT22;19064;47.912;12.308;2023-04-03T14:37:11;3.60;99.90
32660;DHT22;19064;47.912;12.308;2023-04-03T14:39:38;3.50;99.90
32660;DHT22;19064;47.912;12.308;2023-04-03T14:42:05;3.40;99.90
32660;DHT22;19064;47.912;12.308;2023-04-03T14:44:32;3.30;99.90
32660;DHT22;19064;47.912;12.308;2023-04-03T14:47:00;3.30;99.90
32660;DHT22;19064;47.912;12.308;2023-04-03T14:49:28;3.30;99.90
32660;DHT22;19064;47.912;12.308;2023-04-03T14:51:55;3.30;99.90
32660;DHT22;19064;47.912;12.308;2023-04-03T14:54:23;3.30;99.90
32660;DHT22;19064;47.912;12.308;2023-04-03T14:56:53;3.30;99.90
32660;DHT22;19064;47.912;12.308;2023-04-03T14:59:21;3.30;99.90
32660;DHT22;19064;47.912;12.308;2023-04-03T15:01:48;3.40;99.90
32660;DHT22;19064;47.912;12.308;2023-04-03T15:04:18;3.50;99.90
32660;DHT22;19064;47.912;12.308;2023-04-03T15:06:48;3.50;99.90
32660;DHT22;19064;47.912;12.308;2023-04-03T15:09:20;3.50;99.90
32660;DHT22;19064;47.912;12.308;2023-04-03T15:11:47;3.40;99.90
32660;DHT22;19064;47.912;12.308;2023-04-03T15:14:14;3.40;99.90
32660;DHT22;19064;47.912;12.308;2023-04-03T15:16:41;3.40;99.90
32660;DHT22;19064;47.912;12.308;2023-04-03T15:19:08;3.50;99.90
32660;DHT22;19064;47.912;12.308;2023-04-03T15:21:37;3.50;99.90
32660;DHT22;19064;47.912;12.308;2023-04-03T15:24:04;3.50;99.90
32660;DHT22;19064;47.912;12.308;2023-04-03T15:26:32;3.60;99.90
32660;DHT22;19064;47.912;12.308;2023-04-03T15:28:59;3.60;99.90
32660;DHT22;19064;47.912;12.308;2023-04-03T15:31:26;3.50;99.90
32660;DHT22;19064;47.912;12.308;2023-04-03T15:33:53;3.60;99.90
32660;DHT22;19064;47.912;12.308;2023-04-03T15:36:20;3.60;99.90
32660;DHT22;19064;47.912;12.308;2023-04-03T15:38:48;3.70;99.90
32660;DHT22;19064;47.912;12.308;2023-04-03T15:41:15;3.70;99.90
32660;DHT22;19064;47.912;12.308;2023-04-03T15:43:43;3.70;99.90
32660;DHT22;19064;47.912;12.308;2023-04-03T15:46:09;3.90;99.90
32660;DHT22;19064;47.912;12.308;2023-04-03T15:48:36;3.90;99.90
32660;DHT22;19064;47.912;12.308;2023-04-03T15:51:04;3.90;99.90
32660;DHT22;19064;47.912;12.308;2023-04-03T15:53:32;4.00;99.90
32660;DHT22;19064;47.912;12.308;2023-04-03T15:56:00;4.00;99.90